首页
METAR-TAF:

METAR-TAF

机场 :

Rocky Mount-Wilson Regional Airport

Rocky Mount, 北卡罗来纳州, 美国

纬度: 35-51-18N, 经度: 077-53-35W, 海拔: 49米

当前天气观测

该预报发布于47分钟前的22:53 UTC
风速12节,风向南转西南,有时为17节阵风
温度 31°C
湿度 52%
气压 1010 hPa
能見度: 16.1公里
天空无云

METAR: KRWI 032253Z AUTO 20012G17KT 10SM CLR 31/20 A2983 RMK AO2 SLP100 T03060200

时间: 19:40 (23:40 UTC)

预报

该预报发布于20分钟前的23:20 UTC
预报有效从04日的 00点(UTC)到 04日的 24点(UTC)
风速8节,风向南转西南
能見度: 10公里
散云层高于25000英尺
从 04日的 1600点(UTC)
风速10节,风向南转西南,有时为18节阵风
能見度: 10公里
散云层高于5000英尺
多云层高于25000英尺

TAF: KRWI 032320Z 0400/0424 21008KT P6SM SCT250 FM041600 20010G18KT P6SM SCT050 BKN250

超过4000个机场的气象观测和天气预报(METAR&TAF报告)。

可查询的气象台以黄色和红色小点在地图上表示。

将鼠标移到小点上方,可查看气象台名称。

然后点击查看天气观测和预报。

如需切换地图:点击带黑十字的绿色按钮放大地图;点击带横线的绿色按钮缩小地图;或者点击绿色箭头查看邻近地区的地图。


METAR-TAF: